sensor_id;sensor_type;location;lat;lon;timestamp;pressure;altitude;pressure_sealevel;temperature;humidity
71573;BME280;59408;51.032;9.410;2023-02-12T00:00:50;101091.56;;;3.41;100.00
71573;BME280;59408;51.032;9.410;2023-02-12T00:03:17;101092.13;;;3.43;100.00
71573;BME280;59408;51.032;9.410;2023-02-12T00:05:44;101097.19;;;3.39;100.00
71573;BME280;59408;51.032;9.410;2023-02-12T00:08:10;101100.13;;;3.38;100.00
71573;BME280;59408;51.032;9.410;2023-02-12T00:10:39;101097.91;;;3.35;100.00
71573;BME280;59408;51.032;9.410;2023-02-12T00:13:07;101097.34;;;3.33;100.00
71573;BME280;59408;51.032;9.410;2023-02-12T00:15:37;101095.69;;;3.32;100.00
71573;BME280;59408;51.032;9.410;2023-02-12T00:18:04;101100.03;;;3.33;100.00
71573;BME280;59408;51.032;9.410;2023-02-12T00:20:30;101089.84;;;3.35;100.00
71573;BME280;59408;51.032;9.410;2023-02-12T00:22:57;101085.25;;;3.35;100.00
71573;BME280;59408;51.032;9.410;2023-02-12T00:25:24;101084.44;;;3.35;100.00
71573;BME280;59408;51.032;9.410;2023-02-12T00:27:50;101089.31;;;3.38;100.00
71573;BME280;59408;51.032;9.410;2023-02-12T00:30:18;101088.28;;;3.39;100.00
71573;BME280;59408;51.032;9.410;2023-02-12T00:32:45;101089.69;;;3.41;100.00
71573;BME280;59408;51.032;9.410;2023-02-12T00:35:12;101092.13;;;3.43;100.00
71573;BME280;59408;51.032;9.410;2023-02-12T00:37:39;101087.81;;;3.42;100.00
71573;BME280;59408;51.032;9.410;2023-02-12T00:40:06;101091.31;;;3.42;100.00
71573;BME280;59408;51.032;9.410;2023-02-12T00:42:33;101100.81;;;3.45;100.00
71573;BME280;59408;51.032;9.410;2023-02-12T00:45:00;101092.13;;;3.43;100.00
71573;BME280;59408;51.032;9.410;2023-02-12T00:47:28;101082.88;;;3.39;100.00
71573;BME280;59408;51.032;9.410;2023-02-12T00:49:54;101083.63;;;3.34;100.00
71573;BME280;59408;51.032;9.410;2023-02-12T00:52:21;101082.44;;;3.30;100.00
71573;BME280;59408;51.032;9.410;2023-02-12T00:54:47;101088.81;;;3.24;100.00
71573;BME280;59408;51.032;9.410;2023-02-12T00:57:14;101094.44;;;3.23;100.00
71573;BME280;59408;51.032;9.410;2023-02-12T00:59:41;101093.84;;;3.21;100.00
71573;BME280;59408;51.032;9.410;2023-02-12T01:02:07;101100.28;;;3.20;100.00
71573;BME280;59408;51.032;9.410;2023-02-12T01:04:35;101088.59;;;3.14;100.00
71573;BME280;59408;51.032;9.410;2023-02-12T01:07:02;101083.22;;;3.14;100.00
71573;BME280;59408;51.032;9.410;2023-02-12T01:09:29;101084.28;;;3.13;100.00
71573;BME280;59408;51.032;9.410;2023-02-12T01:11:55;101086.97;;;3.13;100.00
71573;BME280;59408;51.032;9.410;2023-02-12T01:14:22;101088.59;;;3.14;100.00
71573;BME280;59408;51.032;9.410;2023-02-12T01:16:48;101092.13;;;3.14;100.00
71573;BME280;59408;51.032;9.410;2023-02-12T01:19:15;101088.59;;;3.14;100.00
71573;BME280;59408;51.032;9.410;2023-02-12T01:21:43;101091.53;;;3.12;100.00
71573;BME280;59408;51.032;9.410;2023-02-12T01:24:10;101096.09;;;3.12;100.00
71573;BME280;59408;51.032;9.410;2023-02-12T01:26:37;101092.03;;;3.09;100.00
71573;BME280;59408;51.032;9.410;2023-02-12T01:29:06;101094.97;;;3.08;100.00
71573;BME280;59408;51.032;9.410;2023-02-12T01:31:35;101108.44;;;3.08;100.00
71573;BME280;59408;51.032;9.410;2023-02-12T01:34:03;101103.28;;;3.06;100.00
71573;BME280;59408;51.032;9.410;2023-02-12T01:36:30;101098.94;;;3.05;100.00
71573;BME280;59408;51.032;9.410;2023-02-12T01:38:59;101092.72;;;3.05;100.00
71573;BME280;59408;51.032;9.410;2023-02-12T01:41:27;101094.59;;;3.04;100.00
71573;BME280;59408;51.032;9.410;2023-02-12T01:44:18;101093.19;;;3.02;100.00
71573;BME280;59408;51.032;9.410;2023-02-12T01:46:46;101084.28;;;3.01;100.00
71573;BME280;59408;51.032;9.410;2023-02-12T01:49:17;101087.25;;;3.00;100.00
71573;BME280;59408;51.032;9.410;2023-02-12T01:51:47;101088.06;;;3.00;100.00
71573;BME280;59408;51.032;9.410;2023-02-12T01:54:19;101088.31;;;2.99;100.00
71573;BME280;59408;51.032;9.410;2023-02-12T01:56:46;101097.22;;;2.99;100.00
71573;BME280;59408;51.032;9.410;2023-02-12T01:59:13;101088.53;;;2.97;100.00
71573;BME280;59408;51.032;9.410;2023-02-12T02:01:40;101092.28;;;2.96;100.00
71573;BME280;59408;51.032;9.410;2023-02-12T02:04:09;101086.91;;;2.96;100.00
71573;BME280;59408;51.032;9.410;2023-02-12T02:06:40;101076.13;;;2.96;100.00
71573;BME280;59408;51.032;9.410;2023-02-12T02:09:09;101081.75;;;2.95;100.00
71573;BME280;59408;51.032;9.410;2023-02-12T02:11:37;101081.75;;;2.95;100.00
71573;BME280;59408;51.032;9.410;2023-02-12T02:14:04;101080.09;;;2.94;100.00
71573;BME280;59408;51.032;9.410;2023-02-12T02:16:33;101081.16;;;2.93;100.00
71573;BME280;59408;51.032;9.410;2023-02-12T02:19:02;101077.63;;;2.92;100.00
71573;BME280;59408;51.032;9.410;2023-02-12T02:21:56;101068.50;;;2.93;100.00
71573;BME280;59408;51.032;9.410;2023-02-12T02:24:53;101073.41;;;2.96;100.00
71573;BME280;59408;51.032;9.410;2023-02-12T02:27:30;101078.81;;;2.96;100.00
71573;BME280;59408;51.032;9.410;2023-02-12T02:30:36;101079.03;;;2.95;100.00
71573;BME280;59408;51.032;9.410;2023-02-12T02:33:12;101075.53;;;2.94;100.00
71573;BME280;59408;51.032;9.410;2023-02-12T02:35:46;101069.09;;;2.95;100.00
71573;BME280;59408;51.032;9.410;2023-02-12T02:38:21;101066.38;;;2.95;100.00
71573;BME280;59408;51.032;9.410;2023-02-12T02:40:53;101072.59;;;2.96;100.00
71573;BME280;59408;51.032;9.410;2023-02-12T02:43:26;101066.38;;;2.95;100.00
71573;BME280;59408;51.032;9.410;2023-02-12T02:45:58;101062.06;;;2.94;100.00
71573;BME280;59408;51.032;9.410;2023-02-12T02:48:31;101064.16;;;2.92;100.00
71573;BME280;59408;51.032;9.410;2023-02-12T02:51:02;101063.09;;;2.93;100.00
71573;BME280;59408;51.032;9.410;2023-02-12T02:53:33;101064.41;;;2.91;100.00
71573;BME280;59408;51.032;9.410;2023-02-12T02:56:02;101060.09;;;2.90;100.00
71573;BME280;59408;51.032;9.410;2023-02-12T02:58:35;101063.84;;;2.89;100.00
71573;BME280;59408;51.032;9.410;2023-02-12T03:01:08;101061.38;;;2.87;100.00
71573;BME280;59408;51.032;9.410;2023-02-12T03:03:41;101060.31;;;2.88;100.00
71573;BME280;59408;51.032;9.410;2023-02-12T03:06:15;101060.56;;;2.87;100.00
71573;BME280;59408;51.032;9.410;2023-02-12T03:08:48;101057.84;;;2.87;100.00
71573;BME280;59408;51.032;9.410;2023-02-12T03:11:21;101059.50;;;2.88;100.00
71573;BME280;59408;51.032;9.410;2023-02-12T03:13:54;101069.47;;;2.87;100.00
71573;BME280;59408;51.032;9.410;2023-02-12T03:16:25;101068.63;;;2.87;100.00
71573;BME280;59408;51.032;9.410;2023-02-12T03:18:55;101067.81;;;2.86;100.00
71573;BME280;59408;51.032;9.410;2023-02-12T03:21:27;101059.97;;;2.85;100.00
71573;BME280;59408;51.032;9.410;2023-02-12T03:23:59;101066.19;;;2.85;100.00
71573;BME280;59408;51.032;9.410;2023-02-12T03:26:35;101063.47;;;2.85;100.00
71573;BME280;59408;51.032;9.410;2023-02-12T03:29:03;101063.72;;;2.84;100.00
71573;BME280;59408;51.032;9.410;2023-02-12T03:31:37;101060.78;;;2.85;100.00
71573;BME280;59408;51.032;9.410;2023-02-12T03:34:12;101058.09;;;2.85;100.00
71573;BME280;59408;51.032;9.410;2023-02-12T03:36:48;101069.47;;;2.87;100.00
71573;BME280;59408;51.032;9.410;2023-02-12T03:39:24;101069.47;;;2.87;100.00
71573;BME280;59408;51.032;9.410;2023-02-12T03:42:00;101067.81;;;2.86;100.00
71573;BME280;59408;51.032;9.410;2023-02-12T03:44:36;101068.06;;;2.85;100.00
71573;BME280;59408;51.032;9.410;2023-02-12T03:47:16;101068.06;;;2.85;100.00
71573;BME280;59408;51.032;9.410;2023-02-12T03:49:48;101074.03;;;2.87;100.00
71573;BME280;59408;51.032;9.410;2023-02-12T03:52:19;101068.06;;;2.85;100.00
71573;BME280;59408;51.032;9.410;2023-02-12T03:54:45;101073.44;;;2.85;100.00
71573;BME280;59408;51.032;9.410;2023-02-12T03:57:14;101073.22;;;2.86;100.00
71573;BME280;59408;51.032;9.410;2023-02-12T03:59:43;101084.00;;;2.86;100.00
71573;BME280;59408;51.032;9.410;2023-02-12T04:02:13;101080.69;;;2.84;100.00
71573;BME280;59408;51.032;9.410;2023-02-12T04:04:40;101080.69;;;2.84;100.00
71573;BME280;59408;51.032;9.410;2023-02-12T04:07:07;101087.72;;;2.85;100.00
71573;BME280;59408;51.032;9.410;2023-02-12T04:09:34;101093.34;;;2.84;100.00
71573;BME280;59408;51.032;9.410;2023-02-12T04:12:18;101089.84;;;2.83;100.00
71573;BME280;59408;51.032;9.410;2023-02-12T04:14:52;101087.97;;;2.84;100.00
71573;BME280;59408;51.032;9.410;2023-02-12T04:17:29;101091.72;;;2.83;100.00
71573;BME280;59408;51.032;9.410;2023-02-12T04:20:06;101087.63;;;2.80;100.00
71573;BME280;59408;51.032;9.410;2023-02-12T04:22:45;101101.13;;;2.80;100.00
71573;BME280;59408;51.032;9.410;2023-02-12T04:25:21;101103.00;;;2.80;100.00
71573;BME280;59408;51.032;9.410;2023-02-12T04:27:57;101093.63;;;2.82;100.00
71573;BME280;59408;51.032;9.410;2023-02-12T04:30:31;101105.19;;;2.83;100.00
71573;BME280;59408;51.032;9.410;2023-02-12T04:33:02;101111.41;;;2.83;100.00
71573;BME280;59408;51.032;9.410;2023-02-12T04:35:31;101117.59;;;2.84;100.00
71573;BME280;59408;51.032;9.410;2023-02-12T04:38:04;101112.81;;;2.86;100.00
71573;BME280;59408;51.032;9.410;2023-02-12T04:40:33;101114.00;;;2.90;100.00
71573;BME280;59408;51.032;9.410;2023-02-12T04:43:00;101124.88;;;2.95;100.00
71573;BME280;59408;51.032;9.410;2023-02-12T04:45:29;101114.09;;;2.95;100.00
71573;BME280;59408;51.032;9.410;2023-02-12T04:47:56;101122.16;;;2.95;100.00
71573;BME280;59408;51.032;9.410;2023-02-12T04:50:25;101121.59;;;2.93;100.00
71573;BME280;59408;51.032;9.410;2023-02-12T04:52:52;101130.50;;;2.93;100.00
71573;BME280;59408;51.032;9.410;2023-02-12T04:55:18;101126.41;;;2.91;100.00
71573;BME280;59408;51.032;9.410;2023-02-12T04:57:45;101119.38;;;2.90;100.00
71573;BME280;59408;51.032;9.410;2023-02-12T05:00:13;101112.34;;;2.89;100.00
71573;BME280;59408;51.032;9.410;2023-02-12T05:02:40;101121.47;;;2.88;100.00
71573;BME280;59408;51.032;9.410;2023-02-12T05:05:07;101122.53;;;2.87;100.00
71573;BME280;59408;51.032;9.410;2023-02-12T05:07:35;101109.28;;;2.85;100.00
71573;BME280;59408;51.032;9.410;2023-02-12T05:10:02;101121.94;;;2.85;100.00
71573;BME280;59408;51.032;9.410;2023-02-12T05:12:29;101121.13;;;2.84;100.00
71573;BME280;59408;51.032;9.410;2023-02-12T05:14:56;101121.94;;;2.85;100.00
71573;BME280;59408;51.032;9.410;2023-02-12T05:17:23;101119.47;;;2.83;100.00
71573;BME280;59408;51.032;9.410;2023-02-12T05:19:50;101131.69;;;2.86;100.00
71573;BME280;59408;51.032;9.410;2023-02-12T05:22:17;101119.47;;;2.83;100.00
71573;BME280;59408;51.032;9.410;2023-02-12T05:24:45;101121.34;;;2.83;100.00
71573;BME280;59408;51.032;9.410;2023-02-12T05:27:12;101122.19;;;2.83;100.00
71573;BME280;59408;51.032;9.410;2023-02-12T05:29:39;101118.44;;;2.84;100.00
71573;BME280;59408;51.032;9.410;2023-02-12T05:32:06;101116.56;;;2.85;100.00
71573;BME280;59408;51.032;9.410;2023-02-12T05:34:33;101121.72;;;2.86;100.00
71573;BME280;59408;51.032;9.410;2023-02-12T05:37:00;101118.44;;;2.84;100.00
71573;BME280;59408;51.032;9.410;2023-02-12T05:39:26;101121.94;;;2.85;100.00
71573;BME280;59408;51.032;9.410;2023-02-12T05:41:54;101120.66;;;2.87;100.00
71573;BME280;59408;51.032;9.410;2023-02-12T05:44:21;101118.78;;;2.88;100.00
71573;BME280;59408;51.032;9.410;2023-02-12T05:46:47;101121.72;;;2.86;100.00
71573;BME280;59408;51.032;9.410;2023-02-12T05:49:14;101125.47;;;2.85;100.00
71573;BME280;59408;51.032;9.410;2023-02-12T05:51:41;101124.88;;;2.83;100.00
71573;BME280;59408;51.032;9.410;2023-02-12T05:54:09;101127.84;;;2.82;100.00
71573;BME280;59408;51.032;9.410;2023-02-12T05:56:40;101122.91;;;2.79;100.00
71573;BME280;59408;51.032;9.410;2023-02-12T05:59:13;101127.47;;;2.78;100.00
71573;BME280;59408;51.032;9.410;2023-02-12T06:01:43;101128.53;;;2.77;100.00
71573;BME280;59408;51.032;9.410;2023-02-12T06:04:13;101133.91;;;2.77;100.00
71573;BME280;59408;51.032;9.410;2023-02-12T06:06:41;101139.31;;;2.77;100.00
71573;BME280;59408;51.032;9.410;2023-02-12T06:09:08;101136.59;;;2.77;100.00
71573;BME280;59408;51.032;9.410;2023-02-12T06:11:35;101130.41;;;2.76;100.00
71573;BME280;59408;51.032;9.410;2023-02-12T06:14:02;101144.69;;;2.77;100.00
71573;BME280;59408;51.032;9.410;2023-02-12T06:16:31;101136.59;;;2.77;100.00
71573;BME280;59408;51.032;9.410;2023-02-12T06:19:00;101142.81;;;2.78;100.00
71573;BME280;59408;51.032;9.410;2023-02-12T06:21:28;101132.63;;;2.80;100.00
71573;BME280;59408;51.032;9.410;2023-02-12T06:23:54;101145.88;;;2.81;100.00
71573;BME280;59408;51.032;9.410;2023-02-12T06:26:22;101141.53;;;2.80;100.00
71573;BME280;59408;51.032;9.410;2023-02-12T06:28:49;101148.78;;;2.80;100.00
71573;BME280;59408;51.032;9.410;2023-02-12T06:31:18;101150.44;;;2.81;100.00
71573;BME280;59408;51.032;9.410;2023-02-12T06:33:46;101146.34;;;2.78;100.00
71573;BME280;59408;51.032;9.410;2023-02-12T06:36:13;101149.84;;;2.79;100.00
71573;BME280;59408;51.032;9.410;2023-02-12T06:38:40;101152.53;;;2.79;100.00
71573;BME280;59408;51.032;9.410;2023-02-12T06:41:06;101163.31;;;2.79;100.00
71573;BME280;59408;51.032;9.410;2023-02-12T06:43:33;101164.38;;;2.78;100.00
71573;BME280;59408;51.032;9.410;2023-02-12T06:46:00;101155.25;;;2.79;100.00
71573;BME280;59408;51.032;9.410;2023-02-12T06:48:27;101159.81;;;2.78;100.00
71573;BME280;59408;51.032;9.410;2023-02-12T06:50:55;101162.03;;;2.81;100.00
71573;BME280;59408;51.032;9.410;2023-02-12T06:53:22;101164.47;;;2.83;100.00
71573;BME280;59408;51.032;9.410;2023-02-12T06:55:48;101164.84;;;2.86;100.00
71573;BME280;59408;51.032;9.410;2023-02-12T06:58:15;101170.22;;;2.86;100.00
71573;BME280;59408;51.032;9.410;2023-02-12T07:00:42;101167.53;;;2.86;100.00
71573;BME280;59408;51.032;9.410;2023-02-12T07:03:08;101174.56;;;2.87;100.00
71573;BME280;59408;51.032;9.410;2023-02-12T07:05:38;101174.09;;;2.90;100.00
71573;BME280;59408;51.032;9.410;2023-02-12T07:08:06;101182.19;;;2.90;100.00
71573;BME280;59408;51.032;9.410;2023-02-12T07:10:33;101185.72;;;2.91;100.00
71573;BME280;59408;51.032;9.410;2023-02-12T07:12:59;101181.38;;;2.90;100.00
71573;BME280;59408;51.032;9.410;2023-02-12T07:15:26;101190.00;;;2.92;100.00
71573;BME280;59408;51.032;9.410;2023-02-12T07:17:53;101198.69;;;2.94;100.00
71573;BME280;59408;51.032;9.410;2023-02-12T07:20:19;101199.53;;;2.94;100.00
71573;BME280;59408;51.032;9.410;2023-02-12T07:22:46;101198.22;;;2.97;100.00
71573;BME280;59408;51.032;9.410;2023-02-12T07:25:14;101205.28;;;2.98;100.00
71573;BME280;59408;51.032;9.410;2023-02-12T07:27:41;101194.50;;;2.98;100.00
71573;BME280;59408;51.032;9.410;2023-02-12T07:30:08;101195.91;;;3.00;100.00
71573;BME280;59408;51.032;9.410;2023-02-12T07:32:35;101205.59;;;3.01;100.00
71573;BME280;59408;51.032;9.410;2023-02-12T07:35:01;101207.84;;;3.04;100.00
71573;BME280;59408;51.032;9.410;2023-02-12T07:37:28;101209.94;;;3.02;100.00
71573;BME280;59408;51.032;9.410;2023-02-12T07:39:54;101205.13;;;3.04;100.00
71573;BME280;59408;51.032;9.410;2023-02-12T07:42:22;101214.88;;;3.05;100.00
71573;BME280;59408;51.032;9.410;2023-02-12T07:44:49;101211.13;;;3.06;100.00
71573;BME280;59408;51.032;9.410;2023-02-12T07:47:16;101216.28;;;3.08;100.00
71573;BME280;59408;51.032;9.410;2023-02-12T07:49:43;101216.63;;;3.11;100.00
71573;BME280;59408;51.032;9.410;2023-02-12T07:52:09;101222.59;;;3.13;100.00
71573;BME280;59408;51.032;9.410;2023-02-12T07:54:38;101217.78;;;3.16;100.00
71573;BME280;59408;51.032;9.410;2023-02-12T07:57:05;101220.81;;;3.19;100.00
71573;BME280;59408;51.032;9.410;2023-02-12T07:59:33;101219.31;;;3.23;100.00
71573;BME280;59408;51.032;9.410;2023-02-12T08:02:00;101227.41;;;3.23;100.00
71573;BME280;59408;51.032;9.410;2023-02-12T08:04:26;101219.91;;;3.25;100.00
71573;BME280;59408;51.032;9.410;2023-02-12T08:06:55;101224.22;;;3.26;100.00
71573;BME280;59408;51.032;9.410;2023-02-12T08:09:23;101222.34;;;3.27;100.00
71573;BME280;59408;51.032;9.410;2023-02-12T08:11:49;101218.59;;;3.28;100.00
71573;BME280;59408;51.032;9.410;2023-02-12T08:14:18;101221.31;;;3.28;100.00
71573;BME280;59408;51.032;9.410;2023-02-12T08:16:47;101224.00;;;3.28;100.00
71573;BME280;59408;51.032;9.410;2023-02-12T08:19:14;101227.25;;;3.30;100.00
71573;BME280;59408;51.032;9.410;2023-02-12T08:21:49;101229.50;;;3.33;100.00
71573;BME280;59408;51.032;9.410;2023-02-12T08:24:16;101234.66;;;3.34;100.00
71573;BME280;59408;51.032;9.410;2023-02-12T08:26:43;101237.69;;;3.38;100.00
71573;BME280;59408;51.032;9.410;2023-02-12T08:29:12;101235.44;;;3.46;100.00
71573;BME280;59408;51.032;9.410;2023-02-12T08:31:40;101239.53;;;3.49;100.00
71573;BME280;59408;51.032;9.410;2023-02-12T08:34:16;101235.56;;;3.51;100.00
71573;BME280;59408;51.032;9.410;2023-02-12T08:36:42;101239.41;;;3.56;100.00
71573;BME280;59408;51.032;9.410;2023-02-12T08:39:09;101233.31;;;3.60;100.00
71573;BME280;59408;51.032;9.410;2023-02-12T08:41:36;101239.97;;;3.69;100.00
71573;BME280;59408;51.032;9.410;2023-02-12T08:44:04;101242.75;;;3.74;100.00
71573;BME280;59408;51.032;9.410;2023-02-12T08:46:32;101244.16;;;3.77;100.00
71573;BME280;59408;51.032;9.410;2023-02-12T08:49:01;101248.75;;;3.76;100.00
71573;BME280;59408;51.032;9.410;2023-02-12T08:51:32;101248.16;;;3.74;100.00
71573;BME280;59408;51.032;9.410;2023-02-12T08:54:01;101241.22;;;3.78;100.00
71573;BME280;59408;51.032;9.410;2023-02-12T08:56:30;101247.44;;;3.79;100.00
71573;BME280;59408;51.032;9.410;2023-02-12T08:58:57;101244.75;;;3.79;100.00
71573;BME280;59408;51.032;9.410;2023-02-12T09:01:26;101242.16;;;3.84;100.00
71573;BME280;59408;51.032;9.410;2023-02-12T09:03:53;101245.53;;;3.91;100.00
71573;BME280;59408;51.032;9.410;2023-02-12T09:06:22;101242.50;;;3.87;100.00
71573;BME280;59408;51.032;9.410;2023-02-12T09:08:50;101246.91;;;3.94;100.00
71573;BME280;59408;51.032;9.410;2023-02-12T09:11:19;101253.25;;;3.99;100.00
71573;BME280;59408;51.032;9.410;2023-02-12T09:13:46;101246.88;;;4.05;100.00
71573;BME280;59408;51.032;9.410;2023-02-12T09:16:13;101253.47;;;4.09;100.00
71573;BME280;59408;51.032;9.410;2023-02-12T09:18:40;101256.72;;;4.11;100.00
71573;BME280;59408;51.032;9.410;2023-02-12T09:21:09;101264.94;;;4.16;100.00
71573;BME280;59408;51.032;9.410;2023-02-12T09:23:36;101260.94;;;4.19;100.00
71573;BME280;59408;51.032;9.410;2023-02-12T09:26:05;101255.53;;;4.19;100.00
71573;BME280;59408;51.032;9.410;2023-02-12T09:28:33;101252.56;;;4.20;100.00
71573;BME280;59408;51.032;9.410;2023-02-12T09:31:03;101261.00;;;4.24;100.00
71573;BME280;59408;51.032;9.410;2023-02-12T09:33:30;101268.97;;;4.31;100.00
71573;BME280;59408;51.032;9.410;2023-02-12T09:36:00;101269.31;;;4.34;100.00
71573;BME280;59408;51.032;9.410;2023-02-12T09:38:27;101265.53;;;4.35;100.00
71573;BME280;59408;51.032;9.410;2023-02-12T09:41:09;101268.78;;;4.37;100.00
71573;BME280;59408;51.032;9.410;2023-02-12T09:43:43;101266.19;;;4.42;100.00
71573;BME280;59408;51.032;9.410;2023-02-12T09:46:18;101268.31;;;4.40;100.00
71573;BME280;59408;51.032;9.410;2023-02-12T09:48:53;101264.91;;;4.45;100.00
71573;BME280;59408;51.032;9.410;2023-02-12T09:51:25;101270.72;;;4.53;100.00
71573;BME280;59408;51.032;9.410;2023-02-12T09:54:00;101268.34;;;4.57;100.00
71573;BME280;59408;51.032;9.410;2023-02-12T09:56:30;101273.34;;;4.65;100.00
71573;BME280;59408;51.032;9.410;2023-02-12T09:58:58;101263.94;;;4.68;100.00
71573;BME280;59408;51.032;9.410;2023-02-12T10:01:26;101272.97;;;4.73;100.00
71573;BME280;59408;51.032;9.410;2023-02-12T10:03:53;101273.28;;;4.77;100.00
71573;BME280;59408;51.032;9.410;2023-02-12T10:06:24;101275.81;;;4.83;100.00
71573;BME280;59408;51.032;9.410;2023-02-12T10:09:23;101280.53;;;4.88;100.00
71573;BME280;59408;51.032;9.410;2023-02-12T10:12:03;101274.13;;;4.94;100.00
71573;BME280;59408;51.032;9.410;2023-02-12T10:15:05;101276.69;;;5.00;100.00
71573;BME280;59408;51.032;9.410;2023-02-12T10:17:39;101278.69;;;5.10;100.00
71573;BME280;59408;51.032;9.410;2023-02-12T10:20:39;101277.47;;;5.18;100.00
71573;BME280;59408;51.032;9.410;2023-02-12T10:23:26;101273.34;;;5.32;100.00
71573;BME280;59408;51.032;9.410;2023-02-12T10:26:01;101265.13;;;5.44;100.00
71573;BME280;59408;51.032;9.410;2023-02-12T10:28:34;101265.44;;;5.47;100.00
71573;BME280;59408;51.032;9.410;2023-02-12T10:31:07;101265.50;;;5.52;100.00
71573;BME280;59408;51.032;9.410;2023-02-12T10:33:41;101261.78;;;5.58;100.00
71573;BME280;59408;51.032;9.410;2023-02-12T10:36:17;101266.22;;;5.64;100.00
71573;BME280;59408;51.032;9.410;2023-02-12T10:38:47;101262.75;;;5.69;100.00
71573;BME280;59408;51.032;9.410;2023-02-12T10:41:16;101273.31;;;5.70;100.00
71573;BME280;59408;51.032;9.410;2023-02-12T10:43:44;101264.00;;;5.83;100.00
71573;BME280;59408;51.032;9.410;2023-02-12T10:46:13;101257.88;;;5.93;100.00
71573;BME280;59408;51.032;9.410;2023-02-12T10:48:41;101255.81;;;6.00;100.00
71573;BME280;59408;51.032;9.410;2023-02-12T10:51:27;101258.25;;;6.01;100.00
71573;BME280;59408;51.032;9.410;2023-02-12T10:54:39;101255.72;;;6.17;100.00
71573;BME280;59408;51.032;9.410;2023-02-12T10:57:13;101256.56;;;6.22;100.00
71573;BME280;59408;51.032;9.410;2023-02-12T10:59:43;101254.44;;;6.24;100.00
71573;BME280;59408;51.032;9.410;2023-02-12T11:02:19;101249.59;;;6.26;100.00
71573;BME280;59408;51.032;9.410;2023-02-12T11:04:46;101254.44;;;6.24;100.00
71573;BME280;59408;51.032;9.410;2023-02-12T11:07:13;101248.66;;;6.42;100.00
71573;BME280;59408;51.032;9.410;2023-02-12T11:09:41;101251.72;;;6.51;100.00
71573;BME280;59408;51.032;9.410;2023-02-12T11:12:17;101253.81;;;6.44;100.00
71573;BME280;59408;51.032;9.410;2023-02-12T11:14:48;101252.59;;;6.30;100.00
71573;BME280;59408;51.032;9.410;2023-02-12T11:17:22;101259.03;;;6.50;100.00
71573;BME280;59408;51.032;9.410;2023-02-12T11:20:01;101255.84;;;6.59;100.00
71573;BME280;59408;51.032;9.410;2023-02-12T11:22:28;101245.81;;;6.59;100.00
71573;BME280;59408;51.032;9.410;2023-02-12T11:25:00;101245.06;;;6.64;100.00
71573;BME280;59408;51.032;9.410;2023-02-12T11:27:29;101250.50;;;6.69;100.00
71573;BME280;59408;51.032;9.410;2023-02-12T11:30:14;101247.63;;;6.80;100.00
71573;BME280;59408;51.032;9.410;2023-02-12T11:32:41;101248.06;;;6.67;100.00
71573;BME280;59408;51.032;9.410;2023-02-12T11:35:12;101241.56;;;6.68;100.00
71573;BME280;59408;51.032;9.410;2023-02-12T11:37:41;101238.28;;;6.66;100.00
71573;BME280;59408;51.032;9.410;2023-02-12T11:40:15;101240.97;;;6.61;100.00
71573;BME280;59408;51.032;9.410;2023-02-12T11:42:47;101241.81;;;6.67;100.00
71573;BME280;59408;51.032;9.410;2023-02-12T11:45:17;101239.97;;;6.72;100.00
71573;BME280;59408;51.032;9.410;2023-02-12T11:47:45;101237.84;;;6.79;100.00
71573;BME280;59408;51.032;9.410;2023-02-12T11:50:21;101241.38;;;6.80;100.00
71573;BME280;59408;51.032;9.410;2023-02-12T11:52:51;101234.88;;;6.81;100.00
71573;BME280;59408;51.032;9.410;2023-02-12T11:55:21;101235.16;;;6.84;100.00
71573;BME280;59408;51.032;9.410;2023-02-12T11:57:50;101246.88;;;6.90;100.00
71573;BME280;59408;51.032;9.410;2023-02-12T12:00:22;101234.66;;;6.87;100.00
71573;BME280;59408;51.032;9.410;2023-02-12T12:02:54;101236.63;;;6.97;100.00
71573;BME280;59408;51.032;9.410;2023-02-12T12:05:28;101233.84;;;6.92;99.16
71573;BME280;59408;51.032;9.410;2023-02-12T12:08:01;101236.84;;;6.91;99.28
71573;BME280;59408;51.032;9.410;2023-02-12T12:10:33;101235.97;;;6.80;98.39
71573;BME280;59408;51.032;9.410;2023-02-12T12:13:04;101230.56;;;6.85;99.38
71573;BME280;59408;51.032;9.410;2023-02-12T12:15:39;101224.31;;;6.84;99.16
71573;BME280;59408;51.032;9.410;2023-02-12T12:18:12;101227.28;;;6.83;100.00
71573;BME280;59408;51.032;9.410;2023-02-12T12:20:47;101222.41;;;6.85;99.40
71573;BME280;59408;51.032;9.410;2023-02-12T12:23:18;101225.09;;;6.80;98.86
71573;BME280;59408;51.032;9.410;2023-02-12T12:25:47;101217.75;;;6.75;98.76
71573;BME280;59408;51.032;9.410;2023-02-12T12:28:33;101213.22;;;6.86;100.00
71573;BME280;59408;51.032;9.410;2023-02-12T12:31:05;101215.41;;;6.89;100.00
71573;BME280;59408;51.032;9.410;2023-02-12T12:33:39;101211.06;;;6.88;100.00
71573;BME280;59408;51.032;9.410;2023-02-12T12:36:36;101207.53;;;6.93;100.00
71573;BME280;59408;51.032;9.410;2023-02-12T12:39:14;101208.97;;;7.00;100.00
71573;BME280;59408;51.032;9.410;2023-02-12T12:41:50;101208.19;;;7.05;100.00
71573;BME280;59408;51.032;9.410;2023-02-12T12:44:30;101204.59;;;6.94;99.69
71573;BME280;59408;51.032;9.410;2023-02-12T12:47:14;101208.66;;;6.92;99.26
71573;BME280;59408;51.032;9.410;2023-02-12T12:49:59;101199.47;;;6.98;100.00
71573;BME280;59408;51.032;9.410;2023-02-12T12:52:55;101202.41;;;6.91;100.00
71573;BME280;59408;51.032;9.410;2023-02-12T12:55:47;101202.34;;;6.81;100.00
71573;BME280;59408;51.032;9.410;2023-02-12T12:58:25;101199.63;;;6.81;100.00
71573;BME280;59408;51.032;9.410;2023-02-12T13:01:13;101201.53;;;6.80;100.00
71573;BME280;59408;51.032;9.410;2023-02-12T13:06:53;101196.03;;;6.70;100.00
71573;BME280;59408;51.032;9.410;2023-02-12T13:09:40;101204.41;;;6.69;100.00
71573;BME280;59408;51.032;9.410;2023-02-12T13:12:27;101197.88;;;6.65;100.00